Time;durP1;ratioP1;P1;durP2;ratioP2;P2;SDS_P1;SDS_P2;PMS_P1;PMS_P2;Temp;Humidity;BMP_temperature;BMP_pressure;BME280_temperature;BME280_humidity;BME280_pressure;Samples;Min_cycle;Max_cycle;Signal;HPM_P1;HPM_P2
2021/05/20 00:02:23;;;;;;;8.73;1.40;;;;;;;;;;3617853;39;20128;-66
2021/05/20 00:04:49;;;;;;;3.05;1.30;;;;;;;;;;3618242;39;20039;-66
2021/05/20 00:07:15;;;;;;;2.72;1.38;;;;;;;;;;3618885;39;20134;-66
2021/05/20 00:09:41;;;;;;;3.40;1.38;;;;;;;;;;3617428;39;20047;-66
2021/05/20 00:12:08;;;;;;;3.17;1.40;;;;;;;;;;3617807;39;20055;-66
2021/05/20 00:14:33;;;;;;;3.08;1.30;;;;;;;;;;3607048;39;20036;-66
2021/05/20 00:16:58;;;;;;;5.50;1.60;;;;;;;;;;3618163;39;20364;-66
2021/05/20 00:19:24;;;;;;;2.78;1.13;;;;;;;;;;3617418;39;20046;-66
2021/05/20 00:21:50;;;;;;;4.20;1.80;;;;;;;;;;3617634;39;20142;-66
2021/05/20 00:24:15;;;;;;;2.88;1.30;;;;;;;;;;3609665;39;20039;-66
2021/05/20 00:26:41;;;;;;;3.63;1.50;;;;;;;;;;3617731;39;20264;-66
2021/05/20 00:29:06;;;;;;;2.60;1.27;;;;;;;;;;3605352;39;20431;-66
2021/05/20 00:31:32;;;;;;;10.85;1.52;;;;;;;;;;3615232;39;20031;-66
2021/05/20 00:33:57;;;;;;;2.80;1.48;;;;;;;;;;3617832;39;20035;-66
2021/05/20 00:36:23;;;;;;;4.32;1.50;;;;;;;;;;3617331;39;20047;-66
2021/05/20 00:38:48;;;;;;;5.25;1.58;;;;;;;;;;3616909;39;20038;-66
2021/05/20 00:41:14;;;;;;;3.08;1.40;;;;;;;;;;3607669;39;20027;-67
2021/05/20 00:43:40;;;;;;;3.22;1.63;;;;;;;;;;3616845;39;20032;-66
2021/05/20 00:46:06;;;;;;;3.63;1.40;;;;;;;;;;3617078;39;20123;-66
2021/05/20 00:48:31;;;;;;;3.70;1.65;;;;;;;;;;3616678;39;20043;-66
2021/05/20 00:50:57;;;;;;;5.68;1.58;;;;;;;;;;3617134;39;20031;-66
2021/05/20 00:53:22;;;;;;;2.45;1.42;;;;;;;;;;3617749;39;20255;-66
2021/05/20 00:55:51;;;;;;;8.20;1.55;;;;;;;;;;3616944;39;20050;-66
2021/05/20 00:58:17;;;;;;;3.40;1.73;;;;;;;;;;3616966;39;20054;-66
2021/05/20 01:00:43;;;;;;;4.15;1.83;;;;;;;;;;3616871;39;20043;-66
2021/05/20 01:03:09;;;;;;;8.15;2.00;;;;;;;;;;3617119;39;20412;-66
2021/05/20 01:05:35;;;;;;;2.78;1.50;;;;;;;;;;3616355;39;20127;-66
2021/05/20 01:08:00;;;;;;;11.40;2.10;;;;;;;;;;3617407;39;20465;-66
2021/05/20 01:10:25;;;;;;;4.68;1.55;;;;;;;;;;3617051;39;20054;-66
2021/05/20 01:12:51;;;;;;;3.80;1.98;;;;;;;;;;3617137;39;20051;-66
2021/05/20 01:15:19;;;;;;;8.82;1.67;;;;;;;;;;3607144;39;20047;-66
2021/05/20 01:17:57;;;;;;;4.40;1.50;;;;;;;;;;3617400;39;20992;-66
2021/05/20 01:20:28;;;;;;;4.70;1.70;;;;;;;;;;3617146;39;20038;-66
2021/05/20 01:23:08;;;;;;;2.97;1.67;;;;;;;;;;3616568;39;20038;-67
2021/05/20 01:25:35;;;;;;;3.03;1.40;;;;;;;;;;3606182;39;20084;-67
2021/05/20 01:28:06;;;;;;;3.50;1.75;;;;;;;;;;3617112;39;20035;-67
2021/05/20 01:30:32;;;;;;;;;;;;;;;;;;3618057;39;20043;-67
2021/05/20 01:32:57;;;;;;;2.95;1.42;;;;;;;;;;3617133;39;19927;-67
2021/05/20 01:35:23;;;;;;;4.05;1.70;;;;;;;;;;3615972;39;20282;-67
2021/05/20 01:37:49;;;;;;;3.83;2.10;;;;;;;;;;3617148;39;20043;-67
2021/05/20 01:40:15;;;;;;;5.72;2.03;;;;;;;;;;3605688;39;20043;-67
2021/05/20 01:42:41;;;;;;;6.10;1.92;;;;;;;;;;3615949;39;20071;-67
2021/05/20 01:45:08;;;;;;;3.45;1.52;;;;;;;;;;3616963;39;20095;-67
2021/05/20 01:47:34;;;;;;;6.15;2.00;;;;;;;;;;3605882;39;20290;-67
2021/05/20 01:49:59;;;;;;;3.00;1.48;;;;;;;;;;3616438;39;20035;-67
2021/05/20 01:52:25;;;;;;;4.22;1.77;;;;;;;;;;3618704;39;20034;-67
2021/05/20 01:54:50;;;;;;;2.45;1.38;;;;;;;;;;3605196;39;20051;-67
2021/05/20 01:57:15;;;;;;;3.65;1.42;;;;;;;;;;3606768;39;20035;-67
2021/05/20 01:59:42;;;;;;;3.97;1.90;;;;;;;;;;3616270;39;20055;-67
2021/05/20 02:02:07;;;;;;;5.72;1.88;;;;;;;;;;3616605;39;20036;-67
2021/05/20 02:04:33;;;;;;;2.90;1.60;;;;;;;;;;3616908;39;20071;-67
2021/05/20 02:06:58;;;;;;;4.22;2.17;;;;;;;;;;3616739;39;20549;-67
2021/05/20 02:09:24;;;;;;;11.43;2.40;;;;;;;;;;3615513;39;20027;-67
2021/05/20 02:11:50;;;;;;;4.65;1.70;;;;;;;;;;3619941;39;20034;-67
2021/05/20 02:14:15;;;;;;;3.90;1.90;;;;;;;;;;3620247;39;20054;-67
2021/05/20 02:16:41;;;;;;;3.88;1.63;;;;;;;;;;3619985;39;20047;-65
2021/05/20 02:19:06;;;;;;;3.05;1.27;;;;;;;;;;3618006;39;20035;-64
2021/05/20 02:21:31;;;;;;;2.78;1.50;;;;;;;;;;3619681;39;20031;-67
2021/05/20 02:23:57;;;;;;;3.35;1.40;;;;;;;;;;3619939;39;20035;-66
2021/05/20 02:26:22;;;;;;;5.75;1.70;;;;;;;;;;3619659;39;20035;-65
2021/05/20 02:28:48;;;;;;;4.35;1.88;;;;;;;;;;3615236;39;20281;-65
2021/05/20 02:31:13;;;;;;;5.88;2.00;;;;;;;;;;3619419;39;20370;-65
2021/05/20 02:33:39;;;;;;;5.82;1.83;;;;;;;;;;3610456;39;20097;-67
2021/05/20 02:36:04;;;;;;;5.55;1.75;;;;;;;;;;3619801;39;20120;-67
2021/05/20 02:38:30;;;;;;;3.53;1.70;;;;;;;;;;3617999;39;20071;-67
2021/05/20 02:40:55;;;;;;;3.13;1.60;;;;;;;;;;3619834;39;20038;-67
2021/05/20 02:43:21;;;;;;;4.55;1.70;;;;;;;;;;3620302;39;20071;-67
2021/05/20 02:45:46;;;;;;;3.40;1.77;;;;;;;;;;3619119;39;20035;-67
2021/05/20 02:48:11;;;;;;;2.83;1.50;;;;;;;;;;3620018;39;20027;-65
2021/05/20 02:50:37;;;;;;;3.00;1.45;;;;;;;;;;3619751;39;20261;-65
2021/05/20 02:53:02;;;;;;;3.63;1.60;;;;;;;;;;3619989;39;20027;-67
2021/05/20 02:55:28;;;;;;;5.85;1.83;;;;;;;;;;3618587;39;20412;-65
2021/05/20 02:57:55;;;;;;;4.18;1.48;;;;;;;;;;3619651;39;20059;-65
2021/05/20 03:00:28;;;;;;;3.80;1.88;;;;;;;;;;3619742;39;20165;-65
2021/05/20 03:02:53;;;;;;;5.28;1.77;;;;;;;;;;3618859;39;20035;-65
2021/05/20 03:05:19;;;;;;;2.90;1.70;;;;;;;;;;3619222;39;20047;-65
2021/05/20 03:07:45;;;;;;;6.47;2.42;;;;;;;;;;3619561;39;20054;-65
2021/05/20 03:10:11;;;;;;;2.90;1.65;;;;;;;;;;3619425;39;20054;-65
2021/05/20 03:12:37;;;;;;;3.95;1.90;;;;;;;;;;3610234;39;20035;-65
2021/05/20 03:15:04;;;;;;;6.90;2.03;;;;;;;;;;3618587;39;20050;-65
2021/05/20 03:17:29;;;;;;;4.40;2.30;;;;;;;;;;3619544;39;20051;-65
2021/05/20 03:19:55;;;;;;;11.65;1.58;;;;;;;;;;3619646;39;20031;-65
2021/05/20 03:22:21;;;;;;;4.18;1.85;;;;;;;;;;3618131;39;20056;-65
2021/05/20 03:24:50;;;;;;;3.35;1.77;;;;;;;;;;3617213;39;20082;-65
2021/05/20 03:27:17;;;;;;;4.68;1.70;;;;;;;;;;3617967;39;20492;-65
2021/05/20 03:29:42;;;;;;;3.40;1.65;;;;;;;;;;3617910;39;20043;-65
2021/05/20 03:32:07;;;;;;;3.95;1.90;;;;;;;;;;3617327;39;20381;-65
2021/05/20 03:34:33;;;;;;;2.72;1.40;;;;;;;;;;3616974;39;20116;-65
2021/05/20 03:36:58;;;;;;;8.55;1.98;;;;;;;;;;3617637;39;20038;-65
2021/05/20 03:39:23;;;;;;;4.05;2.03;;;;;;;;;;3617744;39;20047;-65
2021/05/20 03:41:49;;;;;;;4.70;2.03;;;;;;;;;;3617316;39;20027;-65
2021/05/20 03:44:14;;;;;;;6.03;1.85;;;;;;;;;;3617652;39;20443;-65
2021/05/20 03:46:40;;;;;;;5.43;1.98;;;;;;;;;;3617758;39;20028;-65
2021/05/20 03:49:05;;;;;;;4.93;1.60;;;;;;;;;;3617547;39;20027;-65
2021/05/20 03:51:30;;;;;;;3.47;1.92;;;;;;;;;;3617057;39;20039;-65
2021/05/20 03:53:57;;;;;;;3.15;1.95;;;;;;;;;;3617595;39;20039;-65
2021/05/20 03:56:22;;;;;;;5.45;2.70;;;;;;;;;;3617566;39;20092;-65
2021/05/20 03:58:47;;;;;;;10.73;2.28;;;;;;;;;;3616879;39;20036;-65
2021/05/20 04:01:13;;;;;;;2.97;1.65;;;;;;;;;;3617330;39;20136;-66
2021/05/20 04:03:38;;;;;;;3.50;1.92;;;;;;;;;;3617193;39;20365;-65
2021/05/20 04:06:05;;;;;;;5.40;2.33;;;;;;;;;;3617856;39;20049;-65
2021/05/20 04:08:34;;;;;;;3.97;1.73;;;;;;;;;;3615930;39;20034;-67
2021/05/20 04:10:59;;;;;;;5.03;2.05;;;;;;;;;;3617330;39;20042;-68
2021/05/20 04:13:36;;;;;;;3.88;2.10;;;;;;;;;;3617458;39;20031;-67
2021/05/20 04:16:03;;;;;;;3.53;1.83;;;;;;;;;;3616763;39;20046;-67
2021/05/20 04:18:28;;;;;;;9.43;2.05;;;;;;;;;;3616304;39;20028;-67
2021/05/20 04:20:54;;;;;;;3.30;2.13;;;;;;;;;;3617675;39;20031;-67
2021/05/20 04:23:21;;;;;;;8.10;2.38;;;;;;;;;;3617725;39;20068;-67
2021/05/20 04:25:47;;;;;;;10.18;2.53;;;;;;;;;;3617241;39;20054;-67
2021/05/20 04:28:14;;;;;;;6.88;2.67;;;;;;;;;;3616254;39;20522;-67
2021/05/20 04:30:40;;;;;;;7.20;2.47;;;;;;;;;;3607656;39;20217;-68
2021/05/20 04:33:06;;;;;;;4.85;1.83;;;;;;;;;;3617272;39;20077;-67
2021/05/20 04:35:33;;;;;;;3.85;2.38;;;;;;;;;;3617735;39;20591;-67
2021/05/20 04:37:58;;;;;;;6.47;2.15;;;;;;;;;;3615212;39;20325;-67
2021/05/20 04:40:24;;;;;;;3.95;2.33;;;;;;;;;;3617277;39;20093;-68
2021/05/20 04:42:51;;;;;;;7.38;2.55;;;;;;;;;;3617355;39;20027;-67
2021/05/20 04:45:16;;;;;;;6.78;3.22;;;;;;;;;;3615977;39;20040;-67
2021/05/20 04:47:43;;;;;;;3.30;2.10;;;;;;;;;;3617588;39;20192;-67
2021/05/20 04:50:10;;;;;;;8.15;2.53;;;;;;;;;;3615642;39;20039;-66
2021/05/20 04:52:36;;;;;;;6.18;3.30;;;;;;;;;;3617306;39;20038;-67
2021/05/20 04:55:01;;;;;;;7.28;2.55;;;;;;;;;;3617039;39;20047;-67
2021/05/20 04:57:27;;;;;;;3.63;2.13;;;;;;;;;;3616957;39;20055;-65
2021/05/20 04:59:52;;;;;;;4.78;2.38;;;;;;;;;;3616658;39;20055;-65
2021/05/20 05:02:17;;;;;;;3.88;2.13;;;;;;;;;;3617188;39;20386;-65
2021/05/20 05:04:43;;;;;;;3.90;2.10;;;;;;;;;;3617387;39;20065;-65
2021/05/20 05:07:08;;;;;;;3.30;1.95;;;;;;;;;;3617028;39;20045;-65
2021/05/20 05:09:34;;;;;;;4.70;2.03;;;;;;;;;;3616374;39;20027;-65
2021/05/20 05:11:59;;;;;;;3.90;2.08;;;;;;;;;;3616613;39;20039;-65
2021/05/20 05:14:25;;;;;;;3.40;1.98;;;;;;;;;;3616700;39;20282;-66
2021/05/20 05:16:50;;;;;;;4.22;1.98;;;;;;;;;;3616809;39;20027;-65
2021/05/20 05:19:16;;;;;;;3.28;1.92;;;;;;;;;;3616877;39;20558;-65
2021/05/20 05:21:41;;;;;;;4.95;2.30;;;;;;;;;;3616832;39;20039;-67
2021/05/20 05:24:07;;;;;;;3.35;1.67;;;;;;;;;;3616388;39;20043;-67
2021/05/20 05:26:32;;;;;;;4.10;2.25;;;;;;;;;;3616500;39;20043;-67
2021/05/20 05:28:58;;;;;;;3.22;1.70;;;;;;;;;;3615849;39;20062;-67
2021/05/20 05:31:25;;;;;;;2.53;1.40;;;;;;;;;;3617454;39;20023;-67
2021/05/20 05:33:52;;;;;;;3.80;1.90;;;;;;;;;;3606352;39;20033;-65
2021/05/20 05:36:18;;;;;;;4.22;1.77;;;;;;;;;;3615556;39;20031;-67
2021/05/20 05:38:43;;;;;;;3.33;1.60;;;;;;;;;;3616966;39;20067;-65
2021/05/20 05:41:08;;;;;;;2.72;1.30;;;;;;;;;;3616497;39;20591;-67
2021/05/20 05:43:34;;;;;;;4.55;2.20;;;;;;;;;;3616259;39;20039;-67
2021/05/20 05:45:59;;;;;;;8.43;1.85;;;;;;;;;;3616238;39;20034;-67
2021/05/20 05:48:25;;;;;;;3.47;1.60;;;;;;;;;;3615470;39;20149;-67
2021/05/20 05:50:52;;;;;;;3.05;1.60;;;;;;;;;;3616654;39;20042;-67
2021/05/20 05:53:18;;;;;;;4.28;1.60;;;;;;;;;;3617079;39;20043;-67
2021/05/20 05:55:43;;;;;;;4.47;2.22;;;;;;;;;;3607325;39;20039;-67
2021/05/20 05:58:08;;;;;;;4.60;2.15;;;;;;;;;;3616215;39;20039;-65
2021/05/20 06:00:35;;;;;;;3.08;1.70;;;;;;;;;;3616451;39;20068;-65
2021/05/20 06:03:00;;;;;;;5.35;2.13;;;;;;;;;;3614832;39;20038;-67
2021/05/20 06:05:26;;;;;;;7.85;2.00;;;;;;;;;;3616519;39;20254;-65
2021/05/20 06:07:51;;;;;;;3.95;2.40;;;;;;;;;;3616624;39;20062;-67
2021/05/20 06:10:17;;;;;;;4.60;2.85;;;;;;;;;;3615495;39;20131;-67
2021/05/20 06:12:42;;;;;;;8.40;3.47;;;;;;;;;;3616466;39;20031;-67
2021/05/20 06:15:09;;;;;;;6.13;3.58;;;;;;;;;;3616510;39;20353;-67
2021/05/20 06:17:38;;;;;;;5.93;3.88;;;;;;;;;;3615626;39;20495;-67
2021/05/20 06:20:05;;;;;;;8.00;4.57;;;;;;;;;;3616047;39;20413;-67
2021/05/20 06:22:30;;;;;;;5.80;4.18;;;;;;;;;;3616473;39;20039;-65
2021/05/20 06:24:55;;;;;;;6.30;4.63;;;;;;;;;;3616706;39;20032;-65
2021/05/20 06:27:22;;;;;;;6.20;5.05;;;;;;;;;;3606923;39;20031;-67
2021/05/20 06:29:48;;;;;;;8.45;5.63;;;;;;;;;;3616546;39;20041;-65
2021/05/20 06:32:13;;;;;;;7.35;5.50;;;;;;;;;;3616945;39;20039;-65
2021/05/20 06:34:39;;;;;;;7.07;5.30;;;;;;;;;;3616589;39;20039;-65
2021/05/20 06:37:04;;;;;;;8.20;5.97;;;;;;;;;;3616388;39;20059;-65
2021/05/20 06:39:30;;;;;;;6.95;5.22;;;;;;;;;;3616155;39;20035;-65
2021/05/20 06:41:56;;;;;;;9.20;6.20;;;;;;;;;;3616339;39;20402;-65
2021/05/20 06:44:24;;;;;;;8.85;6.05;;;;;;;;;;3616571;39;20037;-65
2021/05/20 06:46:50;;;;;;;8.85;6.65;;;;;;;;;;3616242;39;20466;-65
2021/05/20 06:49:15;;;;;;;8.68;7.28;;;;;;;;;;3606848;39;20043;-65
2021/05/20 06:51:40;;;;;;;11.20;7.57;;;;;;;;;;3616096;39;20062;-65
2021/05/20 06:54:06;;;;;;;11.68;6.95;;;;;;;;;;3615965;39;20067;-65
2021/05/20 06:56:32;;;;;;;9.52;7.15;;;;;;;;;;3606753;39;20058;-65
2021/05/20 07:01:48;;;;;;;8.95;6.57;;;;;;;;;;3617652;39;20397;-65
2021/05/20 07:04:14;;;;;;;8.10;7.25;;;;;;;;;;3608194;39;20428;-65
2021/05/20 07:06:40;;;;;;;9.70;8.27;;;;;;;;;;3617835;39;20369;-65
2021/05/20 07:09:06;;;;;;;9.45;8.35;;;;;;;;;;3617482;39;20036;-65
2021/05/20 07:11:32;;;;;;;9.23;7.55;;;;;;;;;;3617475;39;20059;-65
2021/05/20 07:13:58;;;;;;;11.52;8.52;;;;;;;;;;3616560;39;20343;-65
2021/05/20 07:16:25;;;;;;;10.93;8.88;;;;;;;;;;3617842;39;20028;-65
2021/05/20 07:18:50;;;;;;;9.43;7.57;;;;;;;;;;3617701;39;20116;-65
2021/05/20 07:21:16;;;;;;;9.90;8.13;;;;;;;;;;3616214;39;20031;-65
2021/05/20 07:23:41;;;;;;;11.52;8.57;;;;;;;;;;3617567;39;20046;-66
2021/05/20 07:26:06;;;;;;;9.40;8.40;;;;;;;;;;3617052;39;20035;-65
2021/05/20 07:28:32;;;;;;;9.57;8.02;;;;;;;;;;3617755;39;20034;-65
2021/05/20 07:30:57;;;;;;;8.88;7.93;;;;;;;;;;3616699;39;20043;-65
2021/05/20 07:33:24;;;;;;;8.90;7.57;;;;;;;;;;3617937;39;20027;-65
2021/05/20 07:35:49;;;;;;;11.05;7.18;;;;;;;;;;3619637;39;20329;-65
2021/05/20 07:38:15;;;;;;;8.75;7.72;;;;;;;;;;3618029;39;20024;-65
2021/05/20 07:40:40;;;;;;;9.23;7.70;;;;;;;;;;3617011;39;20028;-65
2021/05/20 07:43:05;;;;;;;7.90;7.10;;;;;;;;;;3618540;39;20035;-65
2021/05/20 07:45:31;;;;;;;8.32;7.45;;;;;;;;;;3618235;39;20038;-65
2021/05/20 07:47:56;;;;;;;13.00;6.82;;;;;;;;;;3618064;39;20042;-65
2021/05/20 07:50:22;;;;;;;7.05;5.88;;;;;;;;;;3616637;39;20370;-65
2021/05/20 07:52:48;;;;;;;7.78;6.63;;;;;;;;;;3617317;39;20052;-65
2021/05/20 07:55:14;;;;;;;9.75;7.10;;;;;;;;;;3617324;39;20058;-65
2021/05/20 07:57:40;;;;;;;7.57;6.78;;;;;;;;;;3617567;39;20043;-65
2021/05/20 08:00:08;;;;;;;10.82;6.30;;;;;;;;;;3618549;39;20057;-65
2021/05/20 08:02:50;;;;;;;8.68;6.90;;;;;;;;;;3617585;39;20042;-65
2021/05/20 08:05:26;;;;;;;6.82;6.05;;;;;;;;;;3618281;39;20050;-65
2021/05/20 08:08:03;;;;;;;7.97;6.35;;;;;;;;;;3613405;39;20035;-65
2021/05/20 08:10:53;;;;;;;7.88;5.80;;;;;;;;;;3606571;39;20044;-65
2021/05/20 08:13:14;;;;;;;9.05;6.22;;;;;;;;;;3615975;39;20160;-65
2021/05/20 08:15:39;;;;;;;9.55;6.03;;;;;;;;;;3619211;39;20035;-65
2021/05/20 08:18:05;;;;;;;8.27;6.13;;;;;;;;;;3608470;39;20034;-65
2021/05/20 08:20:30;;;;;;;7.88;5.30;;;;;;;;;;3616928;39;20035;-65
2021/05/20 08:22:56;;;;;;;6.25;5.18;;;;;;;;;;3618004;39;20027;-65
2021/05/20 08:25:22;;;;;;;7.35;5.35;;;;;;;;;;3617539;39;20043;-65
2021/05/20 08:27:47;;;;;;;7.97;5.38;;;;;;;;;;3617144;39;20035;-65
2021/05/20 08:30:13;;;;;;;7.57;5.10;;;;;;;;;;3613394;39;20038;-65
2021/05/20 08:32:38;;;;;;;6.40;5.07;;;;;;;;;;3614690;39;20283;-65
2021/05/20 08:35:06;;;;;;;5.57;4.90;;;;;;;;;;3615795;39;20112;-65
2021/05/20 08:37:31;;;;;;;8.80;4.97;;;;;;;;;;3614023;39;20039;-65
2021/05/20 08:39:57;;;;;;;6.80;5.45;;;;;;;;;;3613957;39;20060;-65
2021/05/20 08:42:22;;;;;;;8.15;4.80;;;;;;;;;;3616521;39;20054;-65
2021/05/20 08:44:48;;;;;;;6.45;4.63;;;;;;;;;;3615163;39;20045;-65
2021/05/20 08:47:13;;;;;;;6.78;4.47;;;;;;;;;;3614628;39;20043;-65
2021/05/20 08:49:39;;;;;;;5.30;3.90;;;;;;;;;;3616100;39;20318;-64
2021/05/20 08:52:04;;;;;;;8.50;4.57;;;;;;;;;;3616074;39;20039;-64
2021/05/20 08:54:30;;;;;;;5.60;4.68;;;;;;;;;;3615807;39;20522;-65
2021/05/20 08:56:55;;;;;;;5.60;4.30;;;;;;;;;;3614857;39;20290;-64
2021/05/20 08:59:22;;;;;;;7.82;3.83;;;;;;;;;;3616991;39;20055;-64
2021/05/20 09:01:51;;;;;;;12.30;4.50;;;;;;;;;;3617117;39;20031;-64
2021/05/20 09:04:16;;;;;;;6.70;4.43;;;;;;;;;;3616372;39;20028;-64
2021/05/20 09:07:09;;;;;;;9.60;4.72;;;;;;;;;;3616588;39;20379;-64
2021/05/20 09:09:38;;;;;;;5.32;4.25;;;;;;;;;;3616646;39;20039;-65
2021/05/20 09:12:04;;;;;;;7.97;4.97;;;;;;;;;;3616229;39;20094;-64
2021/05/20 09:14:41;;;;;;;7.25;4.55;;;;;;;;;;3616373;39;20571;-63
2021/05/20 09:17:12;;;;;;;6.45;4.78;;;;;;;;;;3617130;39;20606;-63
2021/05/20 09:19:40;;;;;;;5.97;4.32;;;;;;;;;;3607634;39;20035;-64
2021/05/20 09:22:08;;;;;;;12.70;7.50;;;;;;;;;;3617200;39;20456;-64
2021/05/20 09:24:47;;;;;;;5.95;4.80;;;;;;;;;;3617045;39;20107;-64
2021/05/20 09:27:43;;;;;;;5.75;4.25;;;;;;;;;;3617407;39;20046;-64
2021/05/20 09:30:11;;;;;;;6.70;5.30;;;;;;;;;;3616508;39;20094;-64
2021/05/20 09:32:38;;;;;;;6.65;4.70;;;;;;;;;;3615654;39;20382;-64
2021/05/20 09:35:05;;;;;;;7.40;4.57;;;;;;;;;;3616166;39;20070;-64
2021/05/20 09:37:31;;;;;;;5.90;4.78;;;;;;;;;;3618129;39;20031;-64
2021/05/20 09:40:04;;;;;;;8.07;5.00;;;;;;;;;;3618724;39;20671;-64
2021/05/20 09:42:31;;;;;;;6.22;5.20;;;;;;;;;;3618319;39;20039;-64
2021/05/20 09:45:13;;;;;;;6.38;4.82;;;;;;;;;;3618645;39;20467;-65
2021/05/20 09:47:38;;;;;;;6.07;5.03;;;;;;;;;;3617507;39;20050;-64
2021/05/20 09:50:06;;;;;;;5.93;4.88;;;;;;;;;;3616877;39;20047;-64
2021/05/20 09:52:32;;;;;;;6.20;4.97;;;;;;;;;;3617214;39;20147;-64
2021/05/20 09:54:57;;;;;;;10.20;5.20;;;;;;;;;;3616475;39;20046;-64
2021/05/20 09:57:28;;;;;;;6.78;5.00;;;;;;;;;;3616637;39;20031;-64
2021/05/20 10:00:05;;;;;;;;;;;;;;;;;;3615204;39;20035;-64
2021/05/20 10:02:32;;;;;;;5.88;4.45;;;;;;;;;;3615884;39;19927;-64
2021/05/20 10:05:21;;;;;;;8.52;5.28;;;;;;;;;;3617495;39;20034;-64
2021/05/20 10:07:46;;;;;;;8.60;4.15;;;;;;;;;;3601774;39;20035;-65
2021/05/20 10:10:12;;;;;;;8.07;3.67;;;;;;;;;;3617790;39;20413;-65
2021/05/20 10:12:43;;;;;;;5.53;4.00;;;;;;;;;;3617162;39;20031;-65
2021/05/20 10:15:11;;;;;;;5.13;3.72;;;;;;;;;;3617811;39;20059;-66
2021/05/20 10:17:37;;;;;;;5.88;3.53;;;;;;;;;;3616078;39;20587;-65
2021/05/20 10:20:05;;;;;;;9.45;3.83;;;;;;;;;;3614989;39;20040;-65
2021/05/20 10:22:32;;;;;;;4.53;3.35;;;;;;;;;;3604165;39;20038;-65
2021/05/20 10:24:58;;;;;;;4.38;2.67;;;;;;;;;;3617183;39;20344;-66
2021/05/20 10:27:24;;;;;;;4.25;2.60;;;;;;;;;;3615377;39;20042;-65
2021/05/20 10:29:50;;;;;;;3.80;2.60;;;;;;;;;;3614396;39;20599;-66
2021/05/20 10:32:17;;;;;;;3.92;2.85;;;;;;;;;;3616221;39;20035;-65
2021/05/20 10:35:04;;;;;;;8.65;3.25;;;;;;;;;;3616954;39;20134;-65
2021/05/20 10:37:38;;;;;;;4.70;2.47;;;;;;;;;;3616492;39;20035;-66
2021/05/20 10:40:06;;;;;;;5.25;2.20;;;;;;;;;;3616555;39;20050;-67
2021/05/20 10:42:36;;;;;;;4.57;3.03;;;;;;;;;;3596101;39;20039;-65
2021/05/20 10:45:19;;;;;;;5.07;2.97;;;;;;;;;;3617641;39;20043;-66
2021/05/20 10:48:03;;;;;;;10.30;3.08;;;;;;;;;;3617264;39;20047;-66
2021/05/20 10:50:55;;;;;;;4.03;2.20;;;;;;;;;;3618629;39;20136;-67
2021/05/20 10:53:40;;;;;;;4.57;2.60;;;;;;;;;;3613100;39;20047;-65
2021/05/20 10:56:07;;;;;;;3.83;2.80;;;;;;;;;;3616699;39;20039;-66
2021/05/20 10:58:37;;;;;;;8.63;3.58;;;;;;;;;;3618158;39;20035;-66
2021/05/20 11:01:03;;;;;;;3.30;1.70;;;;;;;;;;3616019;39;20035;-65
2021/05/20 11:03:49;;;;;;;7.03;3.35;;;;;;;;;;3616222;39;20054;-67
2021/05/20 11:06:16;;;;;;;4.70;2.20;;;;;;;;;;3618571;39;20058;-67
2021/05/20 11:08:42;;;;;;;3.92;2.40;;;;;;;;;;3617815;39;20427;-67
2021/05/20 11:11:42;;;;;;;3.67;2.25;;;;;;;;;;3616138;39;20088;-67
2021/05/20 11:14:13;;;;;;;4.28;2.95;;;;;;;;;;3615354;39;20043;-68
2021/05/20 11:16:39;;;;;;;3.35;2.25;;;;;;;;;;3619225;39;20046;-67
2021/05/20 11:19:20;;;;;;;4.72;2.75;;;;;;;;;;3617746;39;20035;-66
2021/05/20 11:21:55;;;;;;;;;;;;;;;;;;3618812;39;20039;-67
2021/05/20 11:24:21;;;;;;;5.55;2.92;;;;;;;;;;3618111;39;19935;-67
2021/05/20 11:26:52;;;;;;;4.07;2.60;;;;;;;;;;3614822;39;20051;-68
2021/05/20 11:29:17;;;;;;;;;;;;;;;;;;3617746;39;20051;-68
2021/05/20 11:31:43;;;;;;;5.35;2.63;;;;;;;;;;3618019;39;19935;-67
2021/05/20 11:36:45;;;;;;;3.95;1.98;;;;;;;;;;3617250;39;20043;-67
2021/05/20 11:39:21;;;;;;;3.10;1.98;;;;;;;;;;3616863;39;20043;-67
2021/05/20 11:41:48;;;;;;;5.18;1.95;;;;;;;;;;3616673;39;20083;-66
2021/05/20 11:44:18;;;;;;;4.63;2.25;;;;;;;;;;3615438;39;20038;-67
2021/05/20 11:46:46;;;;;;;3.15;2.00;;;;;;;;;;3619423;39;20046;-66
2021/05/20 11:49:23;;;;;;;4.22;2.20;;;;;;;;;;3608912;39;20050;-65
2021/05/20 11:52:02;;;;;;;4.43;2.13;;;;;;;;;;3611519;39;20031;-66
2021/05/20 11:54:32;;;;;;;6.55;2.58;;;;;;;;;;3616622;39;20054;-66
2021/05/20 11:56:59;;;;;;;;;;;;;;;;;;3617810;39;20031;-65
2021/05/20 11:59:34;;;;;;;4.55;2.75;;;;;;;;;;3617428;39;19953;-66
2021/05/20 12:02:01;;;;;;;3.88;2.00;;;;;;;;;;3615102;39;20038;-65
2021/05/20 12:04:27;;;;;;;5.20;2.15;;;;;;;;;;3616656;39;20039;-66
2021/05/20 12:06:53;;;;;;;4.88;2.00;;;;;;;;;;3598009;39;20039;-65
2021/05/20 12:09:19;;;;;;;3.67;1.70;;;;;;;;;;3616565;39;20031;-63
2021/05/20 12:11:45;;;;;;;7.90;2.47;;;;;;;;;;3613485;39;20127;-65
2021/05/20 12:14:29;;;;;;;4.28;2.25;;;;;;;;;;3617118;39;20521;-66
2021/05/20 12:17:03;;;;;;;3.25;1.75;;;;;;;;;;3616967;39;20034;-65
2021/05/20 12:19:31;;;;;;;3.95;1.85;;;;;;;;;;3615883;39;20081;-64
2021/05/20 12:22:00;;;;;;;2.92;1.75;;;;;;;;;;3617075;39;20039;-64
2021/05/20 12:24:43;;;;;;;4.43;2.05;;;;;;;;;;3617056;39;20042;-65
2021/05/20 12:27:22;;;;;;;5.70;1.40;;;;;;;;;;3616175;39;20061;-64
2021/05/20 12:29:59;;;;;;;6.30;1.40;;;;;;;;;;3616250;39;20028;-64
2021/05/20 12:32:30;;;;;;;1.73;0.82;;;;;;;;;;3617028;39;20031;-64
2021/05/20 12:35:08;;;;;;;1.85;1.08;;;;;;;;;;3609372;39;20063;-63
2021/05/20 12:37:49;;;;;;;2.00;0.90;;;;;;;;;;3617308;39;20041;-64
2021/05/20 12:40:15;;;;;;;;;;;;;;;;;;3618658;39;20065;-63
2021/05/20 12:42:42;;;;;;;3.58;1.30;;;;;;;;;;3615710;39;19939;-62
2021/05/20 12:45:08;;;;;;;2.83;1.10;;;;;;;;;;3617945;39;20343;-63
2021/05/20 12:47:48;;;;;;;4.82;1.17;;;;;;;;;;3618115;39;20351;-57
2021/05/20 12:50:28;;;;;;;2.63;1.00;;;;;;;;;;3618666;39;20050;-59
2021/05/20 12:52:55;;;;;;;3.05;1.10;;;;;;;;;;3617920;39;20038;-59
2021/05/20 12:55:39;;;;;;;2.22;0.85;;;;;;;;;;3618804;39;20290;-59
2021/05/20 12:58:06;;;;;;;1.48;0.70;;;;;;;;;;3616643;39;20408;-59
2021/05/20 13:01:11;;;;;;;1.60;0.70;;;;;;;;;;3613870;39;20039;-59
2021/05/20 13:03:43;;;;;;;1.75;1.00;;;;;;;;;;3593774;40;20430;-58
2021/05/20 13:06:09;;;;;;;4.45;1.30;;;;;;;;;;3593602;39;20408;-58
2021/05/20 13:08:39;;;;;;;2.47;1.10;;;;;;;;;;3605541;39;20038;-58
2021/05/20 13:11:22;;;;;;;1.77;0.80;;;;;;;;;;3616999;39;20051;-57
2021/05/20 13:13:50;;;;;;;3.95;1.15;;;;;;;;;;3616650;39;20271;-57
2021/05/20 13:16:24;;;;;;;5.55;1.27;;;;;;;;;;3618570;39;20273;-58
2021/05/20 13:24:33;;;;;;;1.30;0.70;;;;;;;;;;3617906;39;20031;-58
2021/05/20 13:26:58;;;;;;;4.00;1.30;;;;;;;;;;3619361;39;20038;-58
2021/05/20 13:29:24;;;;;;;1.48;0.75;;;;;;;;;;3619190;39;20027;-58
2021/05/20 13:31:49;;;;;;;4.78;1.20;;;;;;;;;;3617297;39;20035;-57
2021/05/20 13:34:16;;;;;;;2.60;1.20;;;;;;;;;;3618529;39;20044;-60
2021/05/20 13:36:43;;;;;;;2.03;0.77;;;;;;;;;;3617897;39;20031;-60
2021/05/20 13:39:08;;;;;;;1.52;0.80;;;;;;;;;;3616505;39;20360;-57
2021/05/20 13:41:36;;;;;;;2.53;1.00;;;;;;;;;;3617918;39;20027;-58
2021/05/20 13:44:03;;;;;;;4.53;0.70;;;;;;;;;;3619256;39;20059;-57
2021/05/20 13:46:29;;;;;;;1.58;0.73;;;;;;;;;;3616778;39;20792;-58
2021/05/20 13:48:54;;;;;;;1.50;0.70;;;;;;;;;;3618784;39;20031;-58
2021/05/20 13:51:20;;;;;;;3.63;0.80;;;;;;;;;;3618884;39;20033;-58
2021/05/20 13:53:47;;;;;;;1.42;0.80;;;;;;;;;;3615998;39;20068;-58
2021/05/20 13:56:12;;;;;;;1.55;0.80;;;;;;;;;;3618022;39;20034;-58
2021/05/20 13:58:38;;;;;;;1.27;0.68;;;;;;;;;;3617664;39;20035;-58
2021/05/20 14:01:06;;;;;;;3.22;0.98;;;;;;;;;;3616619;39;20042;-58
2021/05/20 14:03:33;;;;;;;2.50;0.60;;;;;;;;;;3616537;39;20031;-58
2021/05/20 14:05:59;;;;;;;2.45;1.08;;;;;;;;;;3618943;39;20048;-58
2021/05/20 14:08:24;;;;;;;2.08;0.95;;;;;;;;;;3616222;39;20039;-58
2021/05/20 14:10:49;;;;;;;1.80;0.75;;;;;;;;;;3606297;39;20035;-58
2021/05/20 14:13:15;;;;;;;1.63;0.65;;;;;;;;;;3616932;39;20027;-58
2021/05/20 14:15:40;;;;;;;2.88;0.88;;;;;;;;;;3616602;39;20520;-59
2021/05/20 14:18:06;;;;;;;18.83;1.63;;;;;;;;;;3616628;39;20039;-58
2021/05/20 14:20:32;;;;;;;2.78;0.80;;;;;;;;;;3616032;39;20039;-58
2021/05/20 14:22:58;;;;;;;4.43;1.08;;;;;;;;;;3616688;39;20042;-58
2021/05/20 14:25:25;;;;;;;2.10;0.73;;;;;;;;;;3616765;39;20483;-58
2021/05/20 14:27:51;;;;;;;1.98;0.88;;;;;;;;;;3616629;39;20141;-58
2021/05/20 14:30:17;;;;;;;2.92;1.10;;;;;;;;;;3616140;39;20622;-58
2021/05/20 14:32:42;;;;;;;2.63;0.90;;;;;;;;;;3616513;39;20032;-58
2021/05/20 14:35:08;;;;;;;8.80;1.38;;;;;;;;;;3616288;39;20337;-58
2021/05/20 14:37:34;;;;;;;4.13;1.70;;;;;;;;;;3616184;39;20043;-58
2021/05/20 14:40:03;;;;;;;4.95;1.40;;;;;;;;;;3616540;39;20124;-57
2021/05/20 14:42:28;;;;;;;5.97;1.55;;;;;;;;;;3615932;39;20034;-57
2021/05/20 14:44:54;;;;;;;5.38;1.08;;;;;;;;;;3614656;39;20028;-57
2021/05/20 14:47:19;;;;;;;2.78;1.05;;;;;;;;;;3616064;39;20026;-58
2021/05/20 14:49:49;;;;;;;1.80;0.90;;;;;;;;;;3616349;39;20039;-58
2021/05/20 14:54:50;;;;;;;2.88;1.38;;;;;;;;;;3616077;39;20050;-59
2021/05/20 15:05:12;;;;;;;2.40;1.42;;;;;;;;;;3616305;39;20035;-59
2021/05/20 15:07:39;;;;;;;1.80;1.00;;;;;;;;;;3615677;39;20389;-60
2021/05/20 15:10:22;;;;;;;2.95;1.30;;;;;;;;;;3615968;39;20071;-59